createdAt,value
2023-03-06T00:01:57.805Z,3.1
2023-03-06T00:04:57.823Z,3.1
2023-03-06T00:07:57.843Z,3.1
2023-03-06T00:10:57.825Z,3.1
2023-03-06T00:13:57.817Z,3.1
2023-03-06T00:16:57.811Z,3.1
2023-03-06T00:19:57.816Z,3.1
2023-03-06T00:22:57.823Z,3.1
2023-03-06T00:25:57.846Z,3.1
2023-03-06T00:28:57.822Z,3.1
2023-03-06T00:31:57.837Z,3.1
2023-03-06T00:34:57.834Z,3.1
2023-03-06T00:37:57.845Z,3
2023-03-06T00:40:57.840Z,3
2023-03-06T00:43:57.864Z,3
2023-03-06T00:46:57.845Z,3
2023-03-06T00:49:57.848Z,3
2023-03-06T00:52:57.851Z,3
2023-03-06T00:55:57.856Z,3
2023-03-06T00:58:57.860Z,3
2023-03-06T01:01:57.910Z,3
2023-03-06T01:04:57.866Z,3
2023-03-06T01:07:57.879Z,3
2023-03-06T01:10:57.870Z,3
2023-03-06T01:13:57.876Z,2.9
2023-03-06T01:16:57.882Z,2.9
2023-03-06T01:19:57.916Z,2.9
2023-03-06T01:22:57.887Z,2.9
2023-03-06T01:25:57.910Z,2.9
2023-03-06T01:28:57.898Z,2.9
2023-03-06T01:31:57.918Z,2.9
2023-03-06T01:34:57.916Z,2.9
2023-03-06T01:37:57.946Z,2.9
2023-03-06T01:40:57.924Z,2.9
2023-03-06T01:43:57.934Z,2.9
2023-03-06T01:46:57.945Z,2.9
2023-03-06T01:49:57.952Z,3
2023-03-06T01:52:57.945Z,3
2023-03-06T01:55:57.975Z,3
2023-03-06T01:58:57.962Z,3
2023-03-06T02:01:58.031Z,3
2023-03-06T02:04:57.963Z,3
2023-03-06T02:07:57.973Z,3
2023-03-06T02:10:57.981Z,3
2023-03-06T02:13:58.010Z,3
2023-03-06T02:16:58.024Z,3
2023-03-06T02:19:58.011Z,3
2023-03-06T02:22:58.001Z,3
2023-03-06T02:25:58.013Z,3
2023-03-06T02:28:58.016Z,3
2023-03-06T02:31:58.047Z,3
2023-03-06T02:34:58.046Z,3
2023-03-06T02:37:58.036Z,3
2023-03-06T02:40:58.086Z,3
2023-03-06T02:43:58.042Z,3
2023-03-06T02:46:58.046Z,3
2023-03-06T02:49:58.075Z,3
2023-03-06T02:52:58.052Z,3
2023-03-06T02:55:58.060Z,3
2023-03-06T02:58:58.061Z,3
2023-03-06T03:01:58.067Z,2.9
2023-03-06T03:04:58.065Z,2.9
2023-03-06T03:07:58.097Z,2.9
2023-03-06T03:10:58.081Z,2.8
2023-03-06T03:13:58.092Z,2.8
2023-03-06T03:16:58.092Z,2.7
2023-03-06T03:19:58.098Z,2.7
2023-03-06T03:22:58.106Z,2.6
2023-03-06T03:25:58.132Z,2.6
2023-03-06T03:28:58.119Z,2.6
2023-03-06T03:31:58.133Z,2.6
2023-03-06T03:34:58.127Z,2.6
2023-03-06T03:37:58.141Z,2.5
2023-03-06T03:40:58.147Z,2.6
2023-03-06T03:43:58.178Z,2.5
2023-03-06T03:46:58.159Z,2.5
2023-03-06T03:49:58.176Z,2.5
2023-03-06T03:52:58.174Z,2.5
2023-03-06T03:55:58.179Z,2.5
2023-03-06T03:58:58.182Z,2.4
2023-03-06T04:01:58.295Z,2.4
2023-03-06T04:04:58.275Z,2.4
2023-03-06T04:07:58.191Z,2.5
2023-03-06T04:10:58.197Z,2.4
2023-03-06T04:13:58.203Z,2.4
2023-03-06T04:16:58.210Z,2.4
2023-03-06T04:19:58.243Z,2.4
2023-03-06T04:22:58.227Z,2.4
2023-03-06T04:25:58.228Z,2.4
2023-03-06T04:28:58.242Z,2.2
2023-03-06T04:31:58.246Z,2
2023-03-06T04:34:58.252Z,1.8
2023-03-06T04:37:58.291Z,1.6
2023-03-06T04:40:58.275Z,1.5
2023-03-06T04:43:58.284Z,1.4
2023-03-06T04:46:58.283Z,1.3
2023-03-06T04:49:58.287Z,1.2
2023-03-06T04:52:58.301Z,1.1
2023-03-06T04:55:58.341Z,1.1
2023-03-06T04:58:58.317Z,1
2023-03-06T05:01:58.385Z,1
2023-03-06T05:04:58.333Z,0.9
2023-03-06T05:07:58.348Z,0.9
2023-03-06T05:10:58.349Z,0.8
2023-03-06T05:13:58.386Z,0.8
2023-03-06T05:16:58.360Z,0.8
2023-03-06T05:19:58.365Z,0.8
2023-03-06T05:22:58.368Z,0.8
2023-03-06T05:25:58.381Z,0.8
2023-03-06T05:28:58.387Z,0.8
2023-03-06T05:31:58.436Z,0.8
2023-03-06T05:34:58.392Z,0.7
2023-03-06T05:37:58.401Z,0.8
2023-03-06T05:40:58.408Z,0.7
2023-03-06T05:43:58.416Z,0.7
2023-03-06T05:46:58.422Z,0.7
2023-03-06T05:49:58.454Z,0.6
2023-03-06T05:52:58.435Z,0.7
2023-03-06T05:55:58.440Z,0.6
2023-03-06T05:58:58.440Z,0.6
2023-03-06T06:01:58.503Z,0.5
2023-03-06T06:04:58.450Z,0.5
2023-03-06T06:07:58.485Z,0.5
2023-03-06T06:10:58.463Z,0.5
2023-03-06T06:13:58.458Z,0.5
2023-03-06T06:16:58.468Z,0.5
2023-03-06T06:19:58.478Z,0.4
2023-03-06T06:22:58.475Z,0.4
2023-03-06T06:25:58.505Z,0.4
2023-03-06T06:29:00.205Z,0.3
2023-03-06T06:31:58.491Z,0.3
2023-03-06T06:34:58.501Z,0.4
2023-03-06T06:37:58.496Z,0.3
2023-03-06T06:41:31.016Z,0.4
2023-03-06T06:43:59.105Z,0.4
2023-03-06T06:47:21.604Z,0.4
2023-03-06T06:49:58.508Z,0.4
2023-03-06T06:52:58.521Z,0.4
2023-03-06T06:55:58.526Z,0.4
2023-03-06T06:59:10.433Z,0.4
2023-03-06T07:01:58.562Z,0.5
2023-03-06T07:05:05.928Z,0.4
2023-03-06T07:07:58.543Z,0.5
2023-03-06T07:10:58.548Z,0.5
2023-03-06T07:13:58.559Z,0.5
2023-03-06T07:16:58.654Z,0.6
2023-03-06T07:19:58.582Z,0.6
2023-03-06T07:22:58.561Z,0.7
2023-03-06T07:25:58.683Z,0.8
2023-03-06T07:28:58.572Z,0.8
2023-03-06T07:31:58.578Z,0.9
2023-03-06T07:35:17.343Z,0.9
2023-03-06T07:37:58.633Z,0.9
2023-03-06T07:40:58.598Z,0.9
2023-03-06T07:43:58.597Z,0.9
2023-03-06T07:46:58.660Z,1
2023-03-06T07:49:58.609Z,1
2023-03-06T07:52:58.613Z,1.1
2023-03-06T07:55:58.648Z,1.2
2023-03-06T07:58:58.645Z,1.2
2023-03-06T08:01:58.624Z,1.3
2023-03-06T08:04:58.634Z,1.4
2023-03-06T08:07:58.639Z,1.4
2023-03-06T08:10:58.635Z,1.4
2023-03-06T08:13:58.668Z,1.3
2023-03-06T08:16:58.646Z,1.3
2023-03-06T08:19:58.655Z,1.3
2023-03-06T08:22:58.654Z,1.3
2023-03-06T08:25:58.662Z,1.4
2023-03-06T08:28:58.660Z,1.4
2023-03-06T08:31:58.698Z,1.4
2023-03-06T08:34:58.677Z,1.4
2023-03-06T08:37:58.674Z,1.4
2023-03-06T08:40:58.701Z,1.4
2023-03-06T08:43:58.679Z,1.4
2023-03-06T08:46:58.761Z,1.2
2023-03-06T08:50:00.167Z,1.2
2023-03-06T08:52:58.752Z,1.2
2023-03-06T08:55:58.711Z,1.1
2023-03-06T08:58:58.845Z,1.1
2023-03-06T09:01:58.807Z,1
2023-03-06T09:04:58.751Z,1
2023-03-06T09:07:58.759Z,1
2023-03-06T09:10:58.814Z,1
2023-03-06T09:13:58.727Z,1.1
2023-03-06T09:16:58.760Z,1.2
2023-03-06T09:19:58.739Z,1.3
2023-03-06T09:22:58.747Z,1.4
2023-03-06T09:25:58.793Z,1.5
2023-03-06T09:28:58.756Z,1.6
2023-03-06T09:31:58.763Z,1.5
2023-03-06T09:34:58.782Z,1.6
2023-03-06T09:37:58.770Z,1.6
2023-03-06T09:40:58.776Z,1.6
2023-03-06T09:43:58.810Z,1.5
2023-03-06T09:46:58.781Z,1.4
2023-03-06T09:49:58.796Z,1.4
2023-03-06T09:52:58.787Z,1.4
2023-03-06T09:55:58.802Z,1.3
2023-03-06T09:58:58.803Z,1.2
2023-03-06T10:01:58.829Z,1.2
2023-03-06T10:04:58.882Z,1.2
2023-03-06T10:07:58.801Z,1.3
2023-03-06T10:10:58.808Z,1.4
2023-03-06T10:13:58.814Z,1.6
2023-03-06T10:16:58.819Z,1.7
2023-03-06T10:19:58.856Z,1.7
2023-03-06T10:23:02.990Z,1.8
2023-03-06T10:25:58.828Z,1.8
2023-03-06T10:28:58.833Z,1.8
2023-03-06T10:31:58.837Z,1.9
2023-03-06T10:34:58.846Z,2
2023-03-06T10:37:58.879Z,2
2023-03-06T10:40:58.852Z,2
2023-03-06T10:43:58.855Z,2
2023-03-06T10:46:58.860Z,2
2023-03-06T10:49:58.869Z,2.1
2023-03-06T10:52:58.865Z,2.1
2023-03-06T10:55:58.914Z,2.1
2023-03-06T10:58:58.877Z,2.2
2023-03-06T11:01:58.947Z,2.3
2023-03-06T11:04:58.884Z,2.5
2023-03-06T11:07:58.883Z,2.6
2023-03-06T11:10:58.896Z,2.7
2023-03-06T11:13:58.938Z,2.8
2023-03-06T11:16:58.899Z,2.9
2023-03-06T11:19:58.902Z,2.9
2023-03-06T11:22:59.585Z,2.9
2023-03-06T11:25:58.901Z,2.9
2023-03-06T11:28:58.913Z,2.9
2023-03-06T11:31:59.048Z,2.9
2023-03-06T11:34:58.922Z,3
2023-03-06T11:37:58.921Z,3.1
2023-03-06T11:40:58.923Z,3
2023-03-06T11:43:58.929Z,3
2023-03-06T11:46:59.007Z,3
2023-03-06T11:49:58.961Z,2.9
2023-03-06T11:52:58.942Z,2.8
2023-03-06T11:55:58.957Z,2.9
2023-03-06T11:58:58.974Z,3.1
2023-03-06T12:01:58.968Z,3.3
2023-03-06T12:04:59.007Z,3.4
2023-03-06T12:07:58.995Z,3.5
2023-03-06T12:10:58.974Z,3.6
2023-03-06T12:13:59.484Z,3.6
2023-03-06T12:16:58.975Z,3.7
2023-03-06T12:19:58.985Z,3.7
2023-03-06T12:23:14.392Z,3.9
2023-03-06T12:25:59.016Z,3.8
2023-03-06T12:28:58.986Z,3.8
2023-03-06T12:31:59.052Z,3.9
2023-03-06T12:34:58.995Z,4
2023-03-06T12:37:59.003Z,3.9
2023-03-06T12:40:59.018Z,3.8
2023-03-06T12:43:59.035Z,3.8
2023-03-06T12:46:59.040Z,3.7
2023-03-06T12:49:59.018Z,3.7
2023-03-06T12:52:59.044Z,3.7
2023-03-06T12:55:59.049Z,3.7
2023-03-06T12:58:59.034Z,3.6
2023-03-06T13:01:59.063Z,3.6
2023-03-06T13:04:59.039Z,3.5
2023-03-06T13:07:59.057Z,3.3
2023-03-06T13:10:59.057Z,3.2
2023-03-06T13:13:59.060Z,3.1
2023-03-06T13:16:59.089Z,3.1
2023-03-06T13:19:59.088Z,3.1
2023-03-06T13:22:59.066Z,3
2023-03-06T13:25:59.142Z,3.1
2023-03-06T13:28:59.073Z,3.2
2023-03-06T13:31:59.063Z,3.3
2023-03-06T13:34:59.061Z,3.4
2023-03-06T13:37:59.118Z,3.4
2023-03-06T13:40:59.060Z,3.4
2023-03-06T13:43:59.057Z,3.5
2023-03-06T13:46:59.066Z,3.6
2023-03-06T13:49:59.059Z,3.7
2023-03-06T13:52:59.278Z,3.8
2023-03-06T13:55:59.143Z,3.9
2023-03-06T13:58:59.059Z,4
2023-03-06T14:01:59.074Z,4.1
2023-03-06T14:04:59.085Z,4.1
2023-03-06T14:07:59.128Z,4.1
2023-03-06T14:10:59.157Z,4.1
2023-03-06T14:13:59.161Z,4.1
2023-03-06T14:16:59.136Z,4.2
2023-03-06T14:19:59.144Z,4.4
2023-03-06T14:22:59.170Z,4.4
2023-03-06T14:25:59.164Z,4.4
2023-03-06T14:28:59.431Z,4.3
2023-03-06T14:31:59.309Z,4.3
2023-03-06T14:34:59.182Z,4.4
2023-03-06T14:37:59.195Z,4.4
2023-03-06T14:40:59.182Z,4.3
2023-03-06T14:43:59.188Z,4.3
2023-03-06T14:46:59.247Z,4.2
2023-03-06T14:49:59.267Z,4.1
2023-03-06T14:52:59.217Z,4.1
2023-03-06T14:55:59.197Z,4
2023-03-06T14:58:59.208Z,3.9
2023-03-06T15:01:59.335Z,3.8
2023-03-06T15:04:59.206Z,3.7
2023-03-06T15:07:59.249Z,3.6
2023-03-06T15:10:59.228Z,3.6
2023-03-06T15:13:59.215Z,3.6
2023-03-06T15:16:59.212Z,3.6
2023-03-06T15:19:59.215Z,3.6
2023-03-06T15:22:59.248Z,3.6
2023-03-06T15:25:59.246Z,3.6
2023-03-06T15:29:06.955Z,3.6
2023-03-06T15:31:59.222Z,3.5
2023-03-06T15:34:59.224Z,3.5
2023-03-06T15:37:59.236Z,3.4
2023-03-06T15:40:59.231Z,3.3
2023-03-06T15:43:59.255Z,3.2
2023-03-06T15:47:07.848Z,3.2
2023-03-06T15:49:59.243Z,3.2
2023-03-06T15:52:59.267Z,3.2
2023-03-06T15:55:59.241Z,3.2
2023-03-06T15:58:59.237Z,3.2
2023-03-06T16:01:59.277Z,3.2
2023-03-06T16:04:59.240Z,3.3
2023-03-06T16:07:59.272Z,3.3
2023-03-06T16:10:59.247Z,3.3
2023-03-06T16:13:59.245Z,3.3
2023-03-06T16:16:59.265Z,3.3
2023-03-06T16:19:59.269Z,3.3
2023-03-06T16:22:59.258Z,3.3
2023-03-06T16:25:59.244Z,3.2
2023-03-06T16:28:59.246Z,3.2
2023-03-06T16:31:59.250Z,3.2
2023-03-06T16:34:59.251Z,3.1
2023-03-06T16:37:59.285Z,3
2023-03-06T16:40:59.254Z,2.9
2023-03-06T16:43:59.257Z,2.8
2023-03-06T16:46:59.259Z,2.6
2023-03-06T16:49:59.296Z,2.5
2023-03-06T16:52:59.278Z,2.3
2023-03-06T16:55:59.391Z,2.2
2023-03-06T16:58:59.261Z,2.1
2023-03-06T17:01:59.266Z,2
2023-03-06T17:04:59.263Z,1.9
2023-03-06T17:07:59.288Z,1.9
2023-03-06T17:10:59.267Z,1.8
2023-03-06T17:13:59.296Z,1.7
2023-03-06T17:16:59.270Z,1.6
2023-03-06T17:19:59.275Z,1.5
2023-03-06T17:22:59.292Z,1.4
2023-03-06T17:25:59.277Z,1.4
2023-03-06T17:28:59.287Z,1.3
2023-03-06T17:31:59.321Z,1.2
2023-03-06T17:34:59.281Z,1.2
2023-03-06T17:37:59.300Z,1.1
2023-03-06T17:40:59.280Z,1
2023-03-06T17:43:59.282Z,0.9
2023-03-06T17:46:59.285Z,0.8
2023-03-06T17:49:59.421Z,0.7
2023-03-06T17:52:59.306Z,0.7
2023-03-06T17:55:59.296Z,0.7
2023-03-06T17:58:59.301Z,0.6
2023-03-06T18:01:59.356Z,0.6
2023-03-06T18:04:59.325Z,0.5
2023-03-06T18:07:59.358Z,0.4
2023-03-06T18:10:59.292Z,0.4
2023-03-06T18:13:59.301Z,0.4
2023-03-06T18:16:59.293Z,0.3
2023-03-06T18:19:59.301Z,0.2
2023-03-06T18:22:59.309Z,0.2
2023-03-06T18:25:59.331Z,0.1
2023-03-06T18:28:59.304Z,0
2023-03-06T18:31:59.405Z,0
2023-03-06T18:34:59.304Z,-0.1
2023-03-06T18:37:59.311Z,-0.1
2023-03-06T18:40:59.307Z,-0.1
2023-03-06T18:43:59.341Z,-0.1
2023-03-06T18:46:59.309Z,-0.1
2023-03-06T18:49:59.310Z,-0.1
2023-03-06T18:52:59.338Z,-0.2
2023-03-06T18:55:59.309Z,-0.2
2023-03-06T18:58:59.317Z,-0.3
2023-03-06T19:01:59.356Z,-0.3
2023-03-06T19:04:59.330Z,-0.3
2023-03-06T19:07:59.336Z,-0.4
2023-03-06T19:10:59.328Z,-0.4
2023-03-06T19:13:59.332Z,-0.5
2023-03-06T19:16:59.345Z,-0.4
2023-03-06T19:19:59.433Z,-0.4
2023-03-06T19:22:59.351Z,-0.5
2023-03-06T19:25:59.349Z,-0.5
2023-03-06T19:28:59.347Z,-0.5
2023-03-06T19:31:59.434Z,-0.5
2023-03-06T19:34:59.365Z,-0.5
2023-03-06T19:37:59.393Z,-0.6
2023-03-06T19:40:59.355Z,-0.6
2023-03-06T19:43:59.363Z,-0.7
2023-03-06T19:46:59.370Z,-0.7
2023-03-06T19:49:59.366Z,-0.7
2023-03-06T19:52:59.380Z,-0.7
2023-03-06T19:55:59.396Z,-0.7
2023-03-06T19:58:59.367Z,-0.6
2023-03-06T20:01:59.368Z,-0.7
2023-03-06T20:04:59.369Z,-0.7
2023-03-06T20:07:59.384Z,-0.7
2023-03-06T20:10:59.374Z,-0.7
2023-03-06T20:13:59.408Z,-0.7
2023-03-06T20:16:59.376Z,-0.7
2023-03-06T20:19:59.369Z,-0.8
2023-03-06T20:22:59.380Z,-0.8
2023-03-06T20:25:59.377Z,-0.8
2023-03-06T20:28:59.394Z,-0.9
2023-03-06T20:31:59.403Z,-0.8
2023-03-06T20:34:59.378Z,-0.9
2023-03-06T20:37:59.393Z,-0.9
2023-03-06T20:40:59.394Z,-0.9
2023-03-06T20:43:59.400Z,-0.9
2023-03-06T20:46:59.400Z,-1
2023-03-06T20:49:59.435Z,-1
2023-03-06T20:52:59.429Z,-1.2
2023-03-06T20:55:59.406Z,-1.2
2023-03-06T20:58:59.402Z,-1.3
2023-03-06T21:01:59.450Z,-1.3
2023-03-06T21:04:59.493Z,-1.3
2023-03-06T21:07:59.451Z,-1.3
2023-03-06T21:10:59.420Z,-1.3
2023-03-06T21:13:59.422Z,-1.3
2023-03-06T21:16:59.423Z,-1.3
2023-03-06T21:19:59.438Z,-1.3
2023-03-06T21:22:59.437Z,-1.3
2023-03-06T21:25:59.447Z,-1.2
2023-03-06T21:28:59.428Z,-1.2
2023-03-06T21:31:59.427Z,-1.1
2023-03-06T21:34:59.430Z,-1
2023-03-06T21:37:59.448Z,-1
2023-03-06T21:40:59.431Z,-1
2023-03-06T21:43:59.456Z,-0.9
2023-03-06T21:46:59.449Z,-0.9
2023-03-06T21:49:59.443Z,-0.9
2023-03-06T21:52:59.464Z,-0.9
2023-03-06T21:55:59.449Z,-0.8
2023-03-06T21:58:59.436Z,-0.9
2023-03-06T22:01:59.461Z,-0.8
2023-03-06T22:04:59.440Z,-0.7
2023-03-06T22:07:59.455Z,-0.6
2023-03-06T22:10:59.446Z,-0.5
2023-03-06T22:13:59.474Z,-0.4
2023-03-06T22:16:59.455Z,-0.3
2023-03-06T22:19:59.484Z,-0.3
2023-03-06T22:22:59.466Z,-0.2
2023-03-06T22:25:59.453Z,-0.1
2023-03-06T22:28:59.452Z,-0.1
2023-03-06T22:31:59.529Z,0
2023-03-06T22:34:59.454Z,0
2023-03-06T22:37:59.492Z,0.1
2023-03-06T22:40:59.457Z,0.1
2023-03-06T22:43:59.459Z,0.1
2023-03-06T22:46:59.471Z,0.1
2023-03-06T22:49:59.482Z,0.1
2023-03-06T22:52:59.643Z,0.1
2023-03-06T22:55:59.489Z,0.1
2023-03-06T22:58:59.470Z,0.1
2023-03-06T23:01:59.472Z,0.1
2023-03-06T23:04:59.475Z,0.2
2023-03-06T23:07:59.485Z,0.2
2023-03-06T23:10:59.483Z,0.2
2023-03-06T23:13:59.503Z,0.2
2023-03-06T23:16:59.491Z,0.2
2023-03-06T23:19:59.495Z,0.2
2023-03-06T23:22:59.512Z,0.2
2023-03-06T23:25:59.514Z,0.1
2023-03-06T23:28:59.500Z,0.1
2023-03-06T23:31:59.526Z,0.1
2023-03-06T23:34:59.510Z,0.1
2023-03-06T23:37:59.521Z,0.1
2023-03-06T23:40:59.510Z,0.2
2023-03-06T23:43:59.523Z,0.3
2023-03-06T23:46:59.508Z,0.4
2023-03-06T23:49:59.545Z,0.5
2023-03-06T23:52:59.545Z,0.6
2023-03-06T23:55:59.523Z,0.7
2023-03-06T23:58:59.541Z,0.8
